Adapter 3 Export from India

Adapter 3 is exported to over 145 countries . In the year 2020-2021 (Apr-Nov), India has exported Adapter 3 worth of 24.1 USD million. The total volume of export in 2020-2021 (Apr-Nov) was around .

Adapter 3

Adapter 3 export data

Date HS Code Product Description Origin Port Destination Port Quantity Value (INR in Million) Unit Per Unit (INR)
2016-04-22 84314310 PARTS FOR OILFIELD & DRILLING EQUIPMENT-FLANGE ADAPTER 3"-CLASS 2500 WITH 3"MALEF1502 INTEGRAL CONTR. C/W FEMALE BLIND Delhi Air Cargo SINGAPORE 1 0.0408 NOS 40827.0
2016-04-23 70109000 3 WAY CONNECTING ADAPTER 14/20 Z122408-1EA Banglore Air Cargo MILWAUKEE 24 0.0183 NOS 763.0
2016-04-26 82042000 ADAPTER MADE UP OF ALLOY STEEL : TRITORCMALE-MALE ADAPTER SQ.DRIVE:2-1/2" MALEHEX DRIVE : 3-3/4" MALE, PART NO.TA-321 Bombay Air Cargo DALLAS/FT. WORTH, TX 1 0.0046 NOS 4610.0
2016-04-26 87089200 SPARE PARTS FOR 4 WHEELER TATA VEHICLEASSY EXH PIPE REAR(SS ADAPT,FACE/L-E2/3)272149200129 Nhava Sheva Sea Casella/Genova 1 0.0015 NOS 1476.0
2016-04-27 74182020 BRASS SANITARY PARTS: THREADED BRASS INSERTS: ADAPTER UNION 1 INCH ACC.3 (AS PERINVOICE) Mundra Riyadh 150 0.0083 PCS 55.0
2016-04-28 84819090 INDUSTRIAL VALVE PARTS-P1000071752/D GVKIT SURFACE,M130 PLUS,4 1/16#10K,ADAPT F/ACT BB,K#U,PSL 3, MONOGRAMMABLE Chennai Sea Buenos Aires 1 0.1613 NOS 161267.0
2016-04-28 84819090 INDUSTRIAL VALVE PARTS - P4000031380/C GV KIT SURFACE ACE,M130 PLUS 3 1/16-10K,ADAPT F /ACT BB,K-U,PSL 3,MONOGRAMMABLE Chennai Sea Buenos Aires 1 0.1349 NOS 134927.0
2016-04-28 73079190 CHOKE MANIFOLD 3-1/16" 10K - 5 VALVES FLANGE ADAPTER 3-1/16* 10 K X 3* 1502 F Nhava Sheva Sea Jebel Ali 1 0.0358 NOS 35809.0
2016-04-28 73079190 CHOKE MANIFOLD 3-1/16" 10K - 5 VALVES FLANGE ADAPTER 3-1/16* 10 K X 3* 1502 M Nhava Sheva Sea Jebel Ali 1 0.0358 NOS 35809.0
2016-04-30 85044010 ADAPT 6 KVA UPS KIT, 1 X 1 / 3 X 1, WITH10 MINUTES BACKUP, CABLE & ACCESSORIESSERIAL NO.:931101200456 Nhava Sheva Sea Colombo 3 0.2437 SET 81237.0
2016-05-02 73269099 ADAPTABLE BOX K.O. BLACK 6 X 4 X 3" Nhava Sheva Sea Felixstowe 40 0.0048 PCS 120.0
2016-05-02 73269099 ADAPTABLE BOX K.O.GALV 12 X 6 X 3" Nhava Sheva Sea Felixstowe 30 0.0059 PCS 197.0
2016-05-02 73269099 ADAPTABLE BOX K.O.GALV 12 X 9 X 3" Nhava Sheva Sea Felixstowe 108 0.0269 PCS 248.0
2016-05-02 73269099 ADAPTABLE BOX K.O.GALV 3 X 3 X 3" Nhava Sheva Sea Felixstowe 70 0.0048 PCS 69.0
2016-05-02 73269099 ADAPTABLE BOX K.O.GALV 6 X 6 X 3" Nhava Sheva Sea Felixstowe 1410 0.167 PCS 118.0
2016-05-02 73269099 ADAPTABLE BOX K.O.GALV 9 X 9 X 3" Nhava Sheva Sea Felixstowe 96 0.0194 PCS 201.0
2016-05-02 73269099 ADAPTABLE BOX PLAIN GALV 3 X 3 X 2" Nhava Sheva Sea Felixstowe 270 0.0141 PCS 52.0
2016-05-02 73269099 ADAPTABLE BOX PLAIN GALV 6 X 4 X 3" Nhava Sheva Sea Felixstowe 40 0.0041 PCS 101.0
2016-05-02 73269099 ADAPTABLE BOX PLAIN GALV 6 X 6 X 3" Nhava Sheva Sea Felixstowe 210 0.0249 PCS 118.0
2016-05-02 73269099 ADAPTABLE BOX PLAIN GALV 9 X 9 X 3" Nhava Sheva Sea Felixstowe 64 0.0129 PCS 201.0
2016-05-03 84483290 PARTS FOR TEXTILE MACHINERY - 16280.0266.0/3 ADAPTER Tudiyalur - Coimbatore ICD Trieste 6000 0.9337 NOS 155.0
2016-05-03 73269099 ADAPTABLE BOX K.O.GALV 6 X 6 X 3" Nhava Sheva Sea Felixstowe 300 0.0316 PCS 105.0
2016-05-03 73269099 ADAPTABLE BOX PLAIN GALV 9 X 9 X 3" Nhava Sheva Sea Felixstowe 176 0.032 PCS 181.0
2016-05-03 74181021 Sanitary Fittings - Adapter-Piece 5/8? -3/4" - (7.50 Grams Brass nickel plated) Nhava Sheva Sea Hamburg 40000 0.2668 PCS 6.0
2016-05-03 73269099 OTHER ARTICLES OF IRON AND STEEL-ADAPTABLE BOX K.O.GALV 3 X 3 X 2" Nhava Sheva Sea Felixstowe 90 0.0042 PCS 47.0
2016-05-03 73259920 ROUGH ALLOY STEEL CASTINGS - 2" #600 3 WAY ADAPTER TO PART.NO.: 003296C076.000 (WCC) U6858-2 HEATNO / CASTING SNO PO NO. Bangalore ICD Long Beach 2 0.0048 NOS 2416.0
2016-05-04 84243000 ADAPTER 1"F, 3/4" M, &1/2" M, 3/4"F (5+5) Bombay Air Cargo LAGOS 10 0.002 NOS 197.0
2016-05-04 84243000 ADAPTER 3/4" F, 1/2 M & 1/2" F3/4"M(5+5) Bombay Air Cargo LAGOS 10 0.002 NOS 197.0
2016-05-04 84314310 PARTS FOR OILFIELD AND DRILLING EQUIPMENT- SPOOL, ADAPTER, 3-1/16"-15M FLANGEX3-1/16"-15M HUB, 9" LG, APl 16A, TEMP.CLA Delhi Air Cargo DUBAI 8 0.556 NOS 69499.0
2016-05-06 84099990 SPHEROIDAL GRAPHITE / DUCTILE IRON CASTARTICLES (MACHINED) - ADAPTER, DIRVE SHAFT- 4323534 (WE CLAIM BENIFIT CH 3 OF F Chennai Sea Seymour 60 0.3699 NOS 6164.0
2016-05-06 84099990 SPHEROIDAL GRAPHITE / DUCTILE IRON CASTARTICLES (MACHINED) - ADAPTER, DRIVE SHAFT- 4331816 (WE CLAIM BENIFIT CH 3 OF F Chennai Sea Seymour 24 0.1485 NOS 6187.0
2016-05-06 85444999 3 IN 1 NANO SIM ADAPTER - BLACK - 10 PACK Ahmedabad CHICAGO O'HARE INT'L 10 6.0E-4 NOS 62.0
2016-05-06 85389000 BRASS ACCESSORIES FOR ELECTRICAL APPARATUS 20MM x 3/4'' NICKLE PLATED ADAPTER Nhava Sheva Sea Singapore 1000 0.0266 PCS 26.0
2016-05-06 85389000 BRASS ACCESSORIES FOR ELECTRICAL APPARATUS 25MM x 3/4'' NICKLE PLATED ADAPTER Nhava Sheva Sea Singapore 500 0.0145 PCS 29.0
2016-05-06 85389000 BRASS ACCESSORIES FOR ELECTRICAL APPARATUS 3/4" x 1/2'' ADAPTER C/W NUT Nhava Sheva Sea Singapore 1000 0.0122 PCS 12.0
2016-05-07 73259930 STAINLESS STEEL ROUGH CASTING - CASTINGFOR VALVES - ADAPTER B1.600 3"X2" DRG.B16A9R-1A-F (CU5MCUC) Ahmedabad BILBAO 1 0.022 NOS 22020.0
2016-05-07 73259930 STAINLESS STEEL ROUGH CASTING - CASTINGFOR VALVES - ADAPTER B1.600 3"X2" DRG.B16A9R-1A-F (CU5MCUC) Ahmedabad BILBAO 3 0.0672 NOS 22404.0
2016-05-09 73269099 ADAPTABLE BOX K.O. BLACK 3 X 3 X 2" Nhava Sheva Sea Felixstowe 90 0.0037 PCS 41.0
2016-05-09 73269099 ADAPTABLE BOX K.O. BLACK 6 X 6 X 3" Nhava Sheva Sea Felixstowe 60 0.0059 PCS 98.0
2016-05-09 73269099 ADAPTABLE BOX K.O.GALV 12 X 12 X 3" Nhava Sheva Sea Felixstowe 90 0.0215 PCS 238.0
2016-05-09 73269099 ADAPTABLE BOX K.O.GALV 9 X 9 X 3" Nhava Sheva Sea Felixstowe 96 0.0141 PCS 147.0
2016-05-09 73269099 ADAPTABLE BOX PLAIN GALV 9 X 9 X 3" Nhava Sheva Sea Felixstowe 16 0.0024 PCS 147.0
2016-05-09 85159000 WELDING ACCESSORIES-ADAPTER 1/4" MALE WITH 3/8" NUT BSP RH STRAIGHT (100 PCS) Ludhiana London 4 0.0047 KGS 1171.0
2016-05-09 85159000 WELDING ACCESSORIES-ADAPTER 3/8" MALE WITH 1/4" BSP LH-STRAIGHT (40 PCS) Ludhiana London 2 0.0019 KGS 937.0
2016-05-09 85159000 WELDING ACCESSORIES-ADAPTER 3/8"MALE WITH 1/4" BSP RH-STRAIGHT (110 PCS) Ludhiana London 4 0.0052 KGS 1288.0
2016-05-10 73269099 ADAPTABLE BOX K.O.GALV 4 X 4 X 3" Mulund Belfast 50 0.004 PCS 80.0
2016-05-10 73269099 ADAPTABLE BOX K.O.GALV 6 X 4 X 3" Mulund Belfast 40 0.0041 PCS 101.0
2016-05-10 73269099 ADAPTABLE BOX K.O.GALV 6 X 6 X 3" Mulund Belfast 120 0.0141 PCS 117.0
2016-05-10 73269099 ADAPTABLE BOX K.O.GALV 9 X 6 X 3" Mulund Belfast 20 0.003 PCS 152.0
2016-05-10 73269099 ADAPTABLE BOX K.O.GALV 9 X 9 X 3" Mulund Belfast 48 0.0097 PCS 202.0
2016-05-10 74199930 OTHER ARTICLE OF BRASS- BRASS 1/2" X 3/8" ADAPTER Sabarmati ICD Jebel Ali 1185 0.0421 PCS 35.0
2016-05-10 74199930 OTHER ARTICLE OF BRASS- BRASS 1/4" X 3/8" ADAPTER Sabarmati ICD Jebel Ali 1030 0.0231 PCS 22.0
2016-05-10 74199930 OTHER ARTICLE OF BRASS-BRASS 1/4" FL X 3/8" F ADAPTER Sabarmati ICD Jebel Ali 1960 0.0607 PCS 30.0
2016-05-10 73269099 OTHER ARTICLES OF IRON AND STEEL-ADAPTABLE BOX K.O.GALV 12 X 12 X 3" Mulund Belfast 30 0.0099 PCS 331.0
2016-05-10 73269099 OTHER ARTICLES OF IRON AND STEEL-ADAPTABLE BOX K.O.GALV 3 X 3 X 2" Mulund Belfast 90 0.0044 PCS 49.0
2016-05-10 85444999 3 IN 1 NANO SIM ADAPTER - BLACK - 10 PACK Ahmedabad CHICAGO O'HARE INT'L 20 0.0013 NOS 63.0
2016-05-10 85444999 3 IN 1 NANO SIM ADAPTER - BLACK - 3 PACK Ahmedabad CHICAGO O'HARE INT'L 2 0.0 NOS 19.0
2016-05-10 85444999 3 IN 1 NANO SIM ADAPTER - BLACK - 4 PACK Ahmedabad CHICAGO O'HARE INT'L 2 1.0E-4 NOS 25.0
2016-05-10 85444999 3 IN 1 NANO SIM ADAPTER - WHITE- 1 PACK Ahmedabad CHICAGO O'HARE INT'L 10 1.0E-4 NOS 6.0
2016-05-10 85444999 3 IN 1 NANO SIM ADAPTER - WHITE - 3 PACK Ahmedabad CHICAGO O'HARE INT'L 2 0.0 NOS 19.0
2016-05-10 85444999 3 IN 1 NANO SIM ADAPTER - WHITE - 4 PACK Ahmedabad CHICAGO O'HARE INT'L 2 1.0E-4 NOS 25.0
2016-05-10 85444999 3 PACK HDMI F TO MINI HDMI TYPE C ADAPTER Ahmedabad CHICAGO O'HARE INT'L 2 3.0E-4 NOS 152.0
2016-05-10 85444999 ELECTRONIC COMPUTER ACCESSORIES CABLES &ADAPTERS (3 PACK) USB 3.0 EXT CABLE 1.5M - BLUE Ahmedabad CHICAGO O'HARE INT'L 2 6.0E-4 NOS 285.0
2016-05-10 85444999 PS2 ADAPTER - 3 PACK-BLUE Ahmedabad CHICAGO O'HARE INT'L 2 4.0E-4 NOS 196.0
2016-05-11 74153390 BRASS FITTING 3/8 X 1/4 M/F ADAPTER ( CENVAT FACILITY HAS NOT BEEN AVAILED) Nhava Sheva Sea Valparaiso 2000 0.0315 PCS 15.0
2016-05-11 74153390 BRASS FITTING 3/8 X 3/8 M/F ADAPTER ( CENVAT FACILITY HAS NOT BEEN AVAILED) Nhava Sheva Sea Valparaiso 600 0.0112 PCS 18.0
2016-05-12 39172390 1.25 (042MM) COLUMN PIPE WITH COUPLER (3 MTR) SD WITH ADAPTER SET Mundra Riyadh 30 0.0463 NOS 1544.0
2016-05-12 39172390 1.50 (048MM) COLUMN PIPE WITH COUPLER (3 MTR) HD WITH ADAPTER SET Mundra Riyadh 30 0.0528 NOS 1761.0
2016-05-12 39172390 2.00 (060MM) COLUMN PIPE WITH COUPLER (3 MTR) SHD WITH ADAPTER SET Mundra Riyadh 30 0.0976 NOS 3252.0
2016-05-13 84314310 M/PRTS M/WLY OR PDTLY OF CARBON/NON ALLOY STEEL MFTD THRU FRGNG PRC : - ADAPTER,3/8" NPTM X 1/2" NPTM Dadri-CGML Houston 6 0.0014 NOS 234.0

Adapter 3 Trade Data - Indian Ports

S. No Product Product Code Quantity Value (INR in Million) Unit Origin Port Destination Port
ADAPTABLE BOX K.O. BLACK 6 X 6 X 3" 73269099 120 0.0135 PCS Nhava Sheva Sea Felixstowe
ADAPTABLE BOX K.O.GALV 3 X 3 X 1.5" 73269099 100 0.0038 PCS Nhava Sheva Sea Felixstowe
ADAPTABLE BOX K.O.GALV 3 X 3 X 2" 73269099 270 0.0115 PCS Nhava Sheva Sea Felixstowe
ADAPTABLE BOX K.O.GALV 6 X 6 X 3" 73269099 540 0.0527 PCS Nhava Sheva Sea Felixstowe
PCI ADAPTER CARD , (PART NO. 2235744-3) 85176290 1 0.073 NOS Delhi Air Cargo SINGAPORE
GAS COMPRESSIOR PARTS 3/8 X 1/4 M/F ADAPTER 84149011 240 0.0052 PCS Nhava Sheva Sea Toronto
ADAPTABLE BOX K.O.GALV 12 X 12 X 3" 73269099 10 0.003 PCS Nhava Sheva Sea Felixstowe
ADAPTABLE BOX K.O.GALV 6 X 6 X 3" 73269099 180 0.019 PCS Nhava Sheva Sea Felixstowe
ADAPTABLE BOX PLAIN GALV 12 X 12 X 3 73269099 10 0.003 PCS Nhava Sheva Sea Felixstowe
3" RUBBER HOSE ADAPT-304 73269060 55 0.0435 PCS Nhava Sheva Sea Baltimore
ELECTRICAL WIRING ACCESSORIES BRASS ADAPTER 3*4" 85389000 4800 0.0738 PCS Nhava Sheva Sea Jebel Ali
PARTS OF PUMPS- 520915090 ADAPTER,TREATING 3-31/32 IN ACME M X 3 IN 1502 F 84139190 30 0.2114 NOS Nhava Sheva Sea Fos sur Mer
PT.FOR OILFIELD & DRILLING EQUIP-Flange,Adapter, 3-1/16"-10000 PSI, With 2"Female F1502 Integral Contr. with Seal Ring 84314310 1 0.0202 NOS Delhi Air Cargo WARSAW
ENGINE HOSE PIPE FITTING- 3/8" X3/8" X22A/F ADAPTER CNC WITH TWO PCS DUSTCAP (4000 PCS ) 84099990 216 0.061 KGS Ludhiana Dubai
ADAPTABLE BOX K.O.GALV 3 X 3 X 2" 73269099 1350 0.0687 PCS Mulund Dublin
ADAPTABLE BOX K.O.GALV 4 X 4 X 3" 73269099 100 0.0084 PCS Mulund Dublin
ADAPTABLE BOX K.O.GALV 6 X 6 X 3" 73269099 270 0.0327 PCS Mulund Dublin
ADAPTABLE BOX K.O.GALV 9 X 6 X 3" 73269099 20 0.0032 PCS Mulund Dublin
ADAPTABLE BOX K.O.GALV 9 X 9 X 3" 73269099 160 0.0335 PCS Mulund Dublin
ADAPTABLE BOX PLAIN GALV 9 X 6 X 3" 73269099 20 0.0032 PCS Mulund Dublin
OTHER ARTICLES OF IRON AND STEEL- ADAPTABLE BOX K. O. GALV 3 X 3 X 1.5" 73269099 200 0.0087 PCS Mulund Dublin
OTHER ARTICLES OF IRON AND STEEL- ADAPTABLE BOX K.O.GALV 12 X 12 X 3" 73269099 30 0.0103 PCS Mulund Dublin
BRASS ACCESSORIES FOR ELECTRICAL APPARATUS 20MM x 3/4'' NICKLE PLATED ADAPTER 85389000 3000 0.0815 PCS Nhava Sheva Sea Singapore
BRASS ACCESSORIES FOR ELECTRICAL APPARATUS 3/4" x 20MM ADAPTER C/W NUT 85389000 23000 0.2386 PCS Nhava Sheva Sea Singapore
BRASS ACCESSORIES FOR ELECTRICAL APPARATUS 3/4" x 5/8'' ADAPTER C/W NUT 85389000 4000 0.0349 PCS Nhava Sheva Sea Singapore

Looking to export Adapter 3 from India?

With end to end global trade solutions from Connect2India, we enable Indian SMEs to start and grow their business globally

The total volume of Adapter 3 export around the world in year 2018 was . The figures show the great potential for Indian exporters of Adapter 3 to increase their participation in global trading and improve their numbers. United Arab Emirates is the largest exporter of Adapter 3. In YTD 2018 India exported million metric tons of Adapter 3 showing the rise of �% compared to YTD 2017.

Below are the top countries which imported the highest dollar value worth of Adapter 3 from India in 2020-2021 (Apr-Nov)

Country Value (USD Million) Share (%)
United Arab Emirates 4.59 19.05
Germany 2.91 12.07
USA 2.04 8.46
Indonesia 1.82 7.55
China 1.38 5.73
Italy 0.99 4.11
Brazil 0.75 3.11
Thailand 0.66 2.74
Bangladesh 0.65 2.7
Egypt 0.65 2.7

The top 5 trading partners of india are United Arab Emirates (4.59 USD Million), Germany (2.91 USD Million), USA (2.04 USD Million), Indonesia (1.82 USD Million), China (1.38 USD Million) . The total export value of Adapter 3 in these countries is 12.74 USD million. These top 5 countries account for over 52.86% of the total Adapter 3 export from India.

United Arab Emirates is the largest market for Adapter 3 export from India. In 2020-2021 (Apr-Nov), United Arab Emirates imported 4.59 USD million worth Adapter 3 from India.

Among the top countries, United Arab Emirates market share of the total Adapter 3 export shipments from India is 19.05% . Followed by Germany with the Adapter 3 shipment value being 2.91 USD Million. The top 10 countries in total shared the share of 68.22% of the Adapter 3 export value from India.

Considering the top trading partners which import Adapter 3 from India, recorded the fastest growth in their import shipments from India with % rise in their shipment values. The least amount of Adapter 3 is imported by .

Between 2017 and 2018, India’s Adapter 3 export volume has increased to country’s all top 10 Adapter 3 export markets. Comparing the growing figures of previous years, countries like has shown significant growth of % in their Adapter 3 import from India, followed by which is up by %.

The following graphs and table will provide data on Adapter 3 export based on different Indian ports, top importing ports and top export shipments of Adapter 3 from India.

There are about 29 top exporting ports in India which trade Adapter 3 from India, Nhava Sheva Sea exports the majority of Adapter 3 shipments from India with the share of 45.0% , followed by Ahmedabad with 11.0%.

Moving to top importing ports for Adapter 3 from India. Felixstowe port solely imports 316 shipments of Adapter 3 from India and holds the largest share of 31.0%.

Looking to arrange Adapter 3 export order to verified buyers across the globe?

Adapter 3 export analysis - Monthwise

The following table gives insights on a monthly report of November 2020 on Adapter 3 export from India to the top 20 trading partners.

S.no. Country Qty Value(USD Million) Month year
Germany 282810 0.58 November 2020
USA 88830 0.33 November 2020
Indonesia 193000 0.3 November 2020
Brazil 77120 0.27 November 2020
Bangladesh 110670 0.13 November 2020
China 33840 0.13 November 2020
Italy 17690 0.12 November 2020
Nepal 50440 0.11 November 2020
Colombia 74790 0.1 November 2020
Mexico 15000 0.1 November 2020
United Arab Emirates 55570 0.09 November 2020
France 90890 0.08 November 2020
Egypt 49960 0.08 November 2020
Argentina 119980 0.06 November 2020
Ethiopia 39470 0.06 November 2020
Viet Nam 121300 0.06 November 2020
Thailand 34160 0.06 November 2020
Sri Lanka 39920 0.05 November 2020
Sudan 51150 0.05 November 2020
Mauritania 1080 0.04 November 2020

In the month of November 2020, India majorly exported Adapter 3 to Germany(0.58), USA(0.33), Indonesia(0.3), Brazil(0.27), Bangladesh(0.13). The total export volume and export value of these top 5 importing countries is 752430 and 1.61 USD million, which is the 50.79% of the overall export volume in the month of November 2020.

Graphical representation for Adapter 3 export

Adapter 3 - Recent export data

Adapter 3 in India is exported from more than 145 countries.

In FY 2020-2021 (Apr-Nov), Around 4.59 USD Million of Adapter 3 is exported from India to United Arab Emirates. It is around 19.05% of the total export of Adapter 3. Also get year wise data such as Adapter 3 exports in 2020-2021 (Apr-Nov), Adapter 3 exports in 2018 and subsequent years.

How connect2india can help you export Adapter 3?

Connect2India can help you analyse Adapter 3 export data from India to all buying countries. Users can also find here Adapter 3 manufacturers, Adapter 3 exporters, global buyers etc. Our platform also helps you to figure out the right target market to export Adapter 3 and arrange export order, know about the procedure and formalities for export and help you in Adapter 3 shipment and logistics. Our trade experts are always available for any help regarding the export of Adapter 3 and its products. If you want more information, please get in touch with our trade experts here.

People Also Ask

What is the market share of Adapter 3 export from India in 2020-2021 (Apr-Nov)?

Indian exports of Adapter 3 take the market share of 0.01% of the overall export value. India export Adapter 3 to many major trading countries in the world.

What is the total net value of Adapter 3 exported from India in 2018?

In 2018, India exported Adapter 3 worth of 45.08 USD million. The net value of Adapter 3 exports in 2018 shows increase of �% when compared to the value in 2009.

What are the top 3 destinations where India exported Adapter 3 in 2020-2021 (Apr-Nov)?

Following are the top 3 destinations for Indian Adapter 3 :

  • United Arab Emirates
  • Germany
  • USA

Which is the most popular Indian port for Adapter 3 export?

Nhava Sheva Sea is the most popular port for Adapter 3 export from India

What is the net volume of Adapter 3 export from India in 2018?

During 2018, India in total exported quantity of Adapter 3 with different trading partners. Export volume of Adapter 3 in India has changed from to in the last 5 years.

What are the top three export shipments of Adapter 3 traded from India?

Following are the top three export shipments of Adapter 3 traded from India :

  • PARTS FOR OILFIELD & DRILLING EQUIPMENT-FLANGE ADAPTER 3"-CLASS 2500 WITH 3"MALEF1502 INTEGRAL CONTR. C/W FEMALE BLIND
  • 3 WAY CONNECTING ADAPTER 14/20 Z122408-1EA
  • ADAPTER MADE UP OF ALLOY STEEL : TRITORCMALE-MALE ADAPTER SQ.DRIVE:2-1/2" MALEHEX DRIVE : 3-3/4" MALE, PART NO.TA-321